sensor_id;sensor_type;location;lat;lon;timestamp;temperature;humidity
32534;DHT22;18973;48.580;8.912;2023-12-22T00:01:30;7.10;99.90
32534;DHT22;18973;48.580;8.912;2023-12-22T00:03:56;7.10;99.90
32534;DHT22;18973;48.580;8.912;2023-12-22T00:06:21;7.20;99.90
32534;DHT22;18973;48.580;8.912;2023-12-22T00:08:47;7.20;99.90
32534;DHT22;18973;48.580;8.912;2023-12-22T00:11:13;7.20;99.90
32534;DHT22;18973;48.580;8.912;2023-12-22T00:13:38;7.20;99.90
32534;DHT22;18973;48.580;8.912;2023-12-22T00:16:04;7.30;99.90
32534;DHT22;18973;48.580;8.912;2023-12-22T00:18:30;7.30;99.90
32534;DHT22;18973;48.580;8.912;2023-12-22T00:20:56;7.30;99.90
32534;DHT22;18973;48.580;8.912;2023-12-22T00:23:22;7.30;99.90
32534;DHT22;18973;48.580;8.912;2023-12-22T00:25:47;7.40;99.90
32534;DHT22;18973;48.580;8.912;2023-12-22T00:28:13;7.50;99.90
32534;DHT22;18973;48.580;8.912;2023-12-22T00:30:39;7.40;99.90
32534;DHT22;18973;48.580;8.912;2023-12-22T00:33:04;7.50;99.90
32534;DHT22;18973;48.580;8.912;2023-12-22T00:35:30;7.40;99.90
32534;DHT22;18973;48.580;8.912;2023-12-22T00:37:56;7.50;99.90
32534;DHT22;18973;48.580;8.912;2023-12-22T00:40:22;7.40;99.90
32534;DHT22;18973;48.580;8.912;2023-12-22T00:42:47;7.50;99.90
32534;DHT22;18973;48.580;8.912;2023-12-22T00:45:13;7.50;99.90
32534;DHT22;18973;48.580;8.912;2023-12-22T00:47:39;7.50;99.90
32534;DHT22;18973;48.580;8.912;2023-12-22T00:50:05;7.50;99.90
32534;DHT22;18973;48.580;8.912;2023-12-22T00:52:31;7.50;99.90
32534;DHT22;18973;48.580;8.912;2023-12-22T00:54:57;7.50;99.90
32534;DHT22;18973;48.580;8.912;2023-12-22T00:57:23;7.50;99.90
32534;DHT22;18973;48.580;8.912;2023-12-22T00:59:49;7.50;99.90
32534;DHT22;18973;48.580;8.912;2023-12-22T01:02:15;7.50;99.90
32534;DHT22;18973;48.580;8.912;2023-12-22T01:04:41;7.50;99.90
32534;DHT22;18973;48.580;8.912;2023-12-22T01:07:08;7.50;99.90
32534;DHT22;18973;48.580;8.912;2023-12-22T01:09:34;7.40;99.90
32534;DHT22;18973;48.580;8.912;2023-12-22T01:12:00;7.30;99.90
32534;DHT22;18973;48.580;8.912;2023-12-22T01:14:28;7.10;99.90
32534;DHT22;18973;48.580;8.912;2023-12-22T01:16:54;7.00;99.90
32534;DHT22;18973;48.580;8.912;2023-12-22T01:19:20;6.90;99.90
32534;DHT22;18973;48.580;8.912;2023-12-22T01:21:47;6.80;99.90
32534;DHT22;18973;48.580;8.912;2023-12-22T01:24:13;6.80;99.90
32534;DHT22;18973;48.580;8.912;2023-12-22T01:26:39;6.70;99.90
32534;DHT22;18973;48.580;8.912;2023-12-22T01:29:04;6.70;99.90
32534;DHT22;18973;48.580;8.912;2023-12-22T01:31:30;6.70;99.90
32534;DHT22;18973;48.580;8.912;2023-12-22T01:33:56;6.70;99.90
32534;DHT22;18973;48.580;8.912;2023-12-22T01:36:21;6.60;99.90
32534;DHT22;18973;48.580;8.912;2023-12-22T01:38:47;6.50;99.90
32534;DHT22;18973;48.580;8.912;2023-12-22T01:41:13;6.50;99.90
32534;DHT22;18973;48.580;8.912;2023-12-22T01:43:39;6.40;99.90
32534;DHT22;18973;48.580;8.912;2023-12-22T01:46:06;6.40;99.90
32534;DHT22;18973;48.580;8.912;2023-12-22T01:48:33;6.40;99.90
32534;DHT22;18973;48.580;8.912;2023-12-22T01:51:01;6.40;99.90
32534;DHT22;18973;48.580;8.912;2023-12-22T01:53:27;6.50;99.90
32534;DHT22;18973;48.580;8.912;2023-12-22T01:55:54;6.50;99.90
32534;DHT22;18973;48.580;8.912;2023-12-22T01:58:22;6.40;99.90
32534;DHT22;18973;48.580;8.912;2023-12-22T02:00:49;6.50;99.90
32534;DHT22;18973;48.580;8.912;2023-12-22T02:03:15;6.40;99.90
32534;DHT22;18973;48.580;8.912;2023-12-22T02:05:42;6.40;99.90
32534;DHT22;18973;48.580;8.912;2023-12-22T02:08:09;6.40;99.90
32534;DHT22;18973;48.580;8.912;2023-12-22T02:10:35;6.50;99.90
32534;DHT22;18973;48.580;8.912;2023-12-22T02:13:02;6.50;99.90
32534;DHT22;18973;48.580;8.912;2023-12-22T02:15:27;6.50;99.90
32534;DHT22;18973;48.580;8.912;2023-12-22T02:18:07;6.50;99.90
32534;DHT22;18973;48.580;8.912;2023-12-22T02:20:33;6.50;99.90
32534;DHT22;18973;48.580;8.912;2023-12-22T02:23:00;6.60;99.90
32534;DHT22;18973;48.580;8.912;2023-12-22T02:25:28;6.60;99.90
32534;DHT22;18973;48.580;8.912;2023-12-22T02:27:58;6.60;99.90
32534;DHT22;18973;48.580;8.912;2023-12-22T02:30:28;6.70;99.90
32534;DHT22;18973;48.580;8.912;2023-12-22T02:33:03;6.70;99.90
32534;DHT22;18973;48.580;8.912;2023-12-22T02:35:32;6.70;99.90
32534;DHT22;18973;48.580;8.912;2023-12-22T02:37:59;6.60;99.90
32534;DHT22;18973;48.580;8.912;2023-12-22T02:40:26;6.70;99.90
32534;DHT22;18973;48.580;8.912;2023-12-22T02:42:52;6.70;99.90
32534;DHT22;18973;48.580;8.912;2023-12-22T02:45:19;6.70;99.90
32534;DHT22;18973;48.580;8.912;2023-12-22T02:47:45;6.80;99.90
32534;DHT22;18973;48.580;8.912;2023-12-22T02:50:13;6.90;99.90
32534;DHT22;18973;48.580;8.912;2023-12-22T02:52:40;6.80;99.90
32534;DHT22;18973;48.580;8.912;2023-12-22T02:55:06;6.80;99.90
32534;DHT22;18973;48.580;8.912;2023-12-22T02:57:32;6.80;99.90
32534;DHT22;18973;48.580;8.912;2023-12-22T02:59:58;6.80;99.90
32534;DHT22;18973;48.580;8.912;2023-12-22T03:02:24;6.80;99.90
32534;DHT22;18973;48.580;8.912;2023-12-22T03:04:50;6.70;99.90
32534;DHT22;18973;48.580;8.912;2023-12-22T03:07:16;6.60;99.90
32534;DHT22;18973;48.580;8.912;2023-12-22T03:09:42;6.60;99.90
32534;DHT22;18973;48.580;8.912;2023-12-22T03:12:08;6.70;99.90
32534;DHT22;18973;48.580;8.912;2023-12-22T03:14:34;6.60;99.90
32534;DHT22;18973;48.580;8.912;2023-12-22T03:17:01;6.60;99.90
32534;DHT22;18973;48.580;8.912;2023-12-22T03:19:27;6.50;99.90
32534;DHT22;18973;48.580;8.912;2023-12-22T03:21:52;6.50;99.90
32534;DHT22;18973;48.580;8.912;2023-12-22T03:24:18;6.50;99.90
32534;DHT22;18973;48.580;8.912;2023-12-22T03:26:48;6.50;99.90
32534;DHT22;18973;48.580;8.912;2023-12-22T03:29:14;6.60;99.90
32534;DHT22;18973;48.580;8.912;2023-12-22T03:31:40;6.60;99.90
32534;DHT22;18973;48.580;8.912;2023-12-22T03:34:05;6.70;99.90
32534;DHT22;18973;48.580;8.912;2023-12-22T03:36:31;6.70;99.90
32534;DHT22;18973;48.580;8.912;2023-12-22T03:38:57;6.80;99.90
32534;DHT22;18973;48.580;8.912;2023-12-22T03:41:23;6.80;99.90
32534;DHT22;18973;48.580;8.912;2023-12-22T03:43:48;6.90;99.90
32534;DHT22;18973;48.580;8.912;2023-12-22T03:46:14;6.80;99.90
32534;DHT22;18973;48.580;8.912;2023-12-22T03:48:39;6.90;99.90
32534;DHT22;18973;48.580;8.912;2023-12-22T03:51:05;6.90;99.90
32534;DHT22;18973;48.580;8.912;2023-12-22T03:53:31;6.80;99.90
32534;DHT22;18973;48.580;8.912;2023-12-22T03:55:56;6.90;99.90
32534;DHT22;18973;48.580;8.912;2023-12-22T03:58:22;6.90;99.90
32534;DHT22;18973;48.580;8.912;2023-12-22T04:00:48;7.00;99.90
32534;DHT22;18973;48.580;8.912;2023-12-22T04:03:14;7.00;99.90
32534;DHT22;18973;48.580;8.912;2023-12-22T04:05:40;7.00;99.90
32534;DHT22;18973;48.580;8.912;2023-12-22T04:08:06;7.00;99.90
32534;DHT22;18973;48.580;8.912;2023-12-22T04:10:32;7.00;99.90
32534;DHT22;18973;48.580;8.912;2023-12-22T04:12:57;7.00;99.90
32534;DHT22;18973;48.580;8.912;2023-12-22T04:15:23;7.10;99.90
32534;DHT22;18973;48.580;8.912;2023-12-22T04:17:49;7.10;99.90
32534;DHT22;18973;48.580;8.912;2023-12-22T04:20:15;7.10;99.90
32534;DHT22;18973;48.580;8.912;2023-12-22T04:22:41;7.20;99.90
32534;DHT22;18973;48.580;8.912;2023-12-22T04:25:07;7.20;99.90
32534;DHT22;18973;48.580;8.912;2023-12-22T04:27:34;7.20;99.90
32534;DHT22;18973;48.580;8.912;2023-12-22T04:30:00;7.20;99.90
32534;DHT22;18973;48.580;8.912;2023-12-22T04:32:26;7.20;99.90
32534;DHT22;18973;48.580;8.912;2023-12-22T04:34:52;7.10;99.90
32534;DHT22;18973;48.580;8.912;2023-12-22T04:37:18;7.00;99.90
32534;DHT22;18973;48.580;8.912;2023-12-22T04:39:43;7.00;99.90
32534;DHT22;18973;48.580;8.912;2023-12-22T04:42:09;6.90;99.90
32534;DHT22;18973;48.580;8.912;2023-12-22T04:44:35;6.90;99.90
32534;DHT22;18973;48.580;8.912;2023-12-22T04:47:00;6.90;99.90
32534;DHT22;18973;48.580;8.912;2023-12-22T04:49:26;6.80;99.90
32534;DHT22;18973;48.580;8.912;2023-12-22T04:51:52;6.80;99.90
32534;DHT22;18973;48.580;8.912;2023-12-22T04:54:17;6.80;99.90
32534;DHT22;18973;48.580;8.912;2023-12-22T04:56:43;6.80;99.90
32534;DHT22;18973;48.580;8.912;2023-12-22T04:59:11;6.80;99.90
32534;DHT22;18973;48.580;8.912;2023-12-22T05:01:36;6.80;99.90
32534;DHT22;18973;48.580;8.912;2023-12-22T05:04:02;6.80;99.90
32534;DHT22;18973;48.580;8.912;2023-12-22T05:06:28;6.80;99.90
32534;DHT22;18973;48.580;8.912;2023-12-22T05:08:56;6.80;99.90
32534;DHT22;18973;48.580;8.912;2023-12-22T05:11:22;6.80;99.90
32534;DHT22;18973;48.580;8.912;2023-12-22T05:13:48;6.80;99.90
32534;DHT22;18973;48.580;8.912;2023-12-22T05:16:14;6.90;99.90
32534;DHT22;18973;48.580;8.912;2023-12-22T05:18:40;6.90;99.90
32534;DHT22;18973;48.580;8.912;2023-12-22T05:21:05;6.90;99.90
32534;DHT22;18973;48.580;8.912;2023-12-22T05:23:31;7.00;99.90
32534;DHT22;18973;48.580;8.912;2023-12-22T05:25:58;7.00;99.90
32534;DHT22;18973;48.580;8.912;2023-12-22T05:28:23;7.10;99.90
32534;DHT22;18973;48.580;8.912;2023-12-22T05:30:49;7.10;99.90
32534;DHT22;18973;48.580;8.912;2023-12-22T05:33:15;7.00;99.90
32534;DHT22;18973;48.580;8.912;2023-12-22T05:35:41;7.00;99.90
32534;DHT22;18973;48.580;8.912;2023-12-22T05:38:06;7.10;99.90
32534;DHT22;18973;48.580;8.912;2023-12-22T05:40:32;7.10;99.90
32534;DHT22;18973;48.580;8.912;2023-12-22T05:42:58;7.10;99.90
32534;DHT22;18973;48.580;8.912;2023-12-22T05:45:24;7.10;99.90
32534;DHT22;18973;48.580;8.912;2023-12-22T05:47:52;7.10;99.90
32534;DHT22;18973;48.580;8.912;2023-12-22T05:50:18;7.20;99.90
32534;DHT22;18973;48.580;8.912;2023-12-22T05:52:43;7.20;99.90
32534;DHT22;18973;48.580;8.912;2023-12-22T05:55:10;7.20;99.90
32534;DHT22;18973;48.580;8.912;2023-12-22T05:57:36;7.20;99.90
32534;DHT22;18973;48.580;8.912;2023-12-22T06:00:02;7.20;99.90
32534;DHT22;18973;48.580;8.912;2023-12-22T06:02:32;7.30;99.90
32534;DHT22;18973;48.580;8.912;2023-12-22T06:04:58;7.30;99.90
32534;DHT22;18973;48.580;8.912;2023-12-22T06:07:24;7.30;99.90
32534;DHT22;18973;48.580;8.912;2023-12-22T06:09:49;7.30;99.90
32534;DHT22;18973;48.580;8.912;2023-12-22T06:12:15;7.40;99.90
32534;DHT22;18973;48.580;8.912;2023-12-22T06:14:41;7.30;99.90
32534;DHT22;18973;48.580;8.912;2023-12-22T06:17:06;7.20;99.90
32534;DHT22;18973;48.580;8.912;2023-12-22T06:19:32;7.30;99.90
32534;DHT22;18973;48.580;8.912;2023-12-22T06:21:58;7.20;99.90
32534;DHT22;18973;48.580;8.912;2023-12-22T06:24:25;7.10;99.90
32534;DHT22;18973;48.580;8.912;2023-12-22T06:26:51;7.00;99.90
32534;DHT22;18973;48.580;8.912;2023-12-22T06:29:17;6.90;99.90
32534;DHT22;18973;48.580;8.912;2023-12-22T06:31:43;6.70;99.90
32534;DHT22;18973;48.580;8.912;2023-12-22T06:34:09;6.50;99.90
32534;DHT22;18973;48.580;8.912;2023-12-22T06:36:34;6.50;99.90
32534;DHT22;18973;48.580;8.912;2023-12-22T06:39:00;6.50;99.90
32534;DHT22;18973;48.580;8.912;2023-12-22T06:41:30;6.40;99.90
32534;DHT22;18973;48.580;8.912;2023-12-22T06:43:57;6.50;99.90
32534;DHT22;18973;48.580;8.912;2023-12-22T06:46:23;6.60;99.90
32534;DHT22;18973;48.580;8.912;2023-12-22T06:48:53;6.60;99.90
32534;DHT22;18973;48.580;8.912;2023-12-22T06:51:20;6.70;99.90
32534;DHT22;18973;48.580;8.912;2023-12-22T06:53:47;6.70;99.90
32534;DHT22;18973;48.580;8.912;2023-12-22T06:56:19;6.70;99.90
32534;DHT22;18973;48.580;8.912;2023-12-22T06:58:46;6.70;99.90
32534;DHT22;18973;48.580;8.912;2023-12-22T07:01:34;6.80;99.90
32534;DHT22;18973;48.580;8.912;2023-12-22T07:04:01;6.80;99.90
32534;DHT22;18973;48.580;8.912;2023-12-22T07:06:32;6.80;99.90
32534;DHT22;18973;48.580;8.912;2023-12-22T07:14:08;6.80;99.90
32534;DHT22;18973;48.580;8.912;2023-12-22T07:16:35;6.80;99.90
32534;DHT22;18973;48.580;8.912;2023-12-22T07:19:02;6.80;99.90
32534;DHT22;18973;48.580;8.912;2023-12-22T07:21:27;6.80;99.90
32534;DHT22;18973;48.580;8.912;2023-12-22T07:23:53;6.80;99.90
32534;DHT22;18973;48.580;8.912;2023-12-22T07:26:19;6.80;99.90
32534;DHT22;18973;48.580;8.912;2023-12-22T07:28:47;6.80;99.90
32534;DHT22;18973;48.580;8.912;2023-12-22T07:31:13;6.90;99.90
32534;DHT22;18973;48.580;8.912;2023-12-22T07:33:42;6.90;99.90
32534;DHT22;18973;48.580;8.912;2023-12-22T07:36:21;6.80;99.90
32534;DHT22;18973;48.580;8.912;2023-12-22T07:38:49;6.80;99.90
32534;DHT22;18973;48.580;8.912;2023-12-22T07:41:14;6.80;99.90
32534;DHT22;18973;48.580;8.912;2023-12-22T07:43:40;6.80;99.90
32534;DHT22;18973;48.580;8.912;2023-12-22T07:46:07;6.80;99.90
32534;DHT22;18973;48.580;8.912;2023-12-22T07:48:37;6.80;99.90
32534;DHT22;18973;48.580;8.912;2023-12-22T07:51:03;6.80;99.90
32534;DHT22;18973;48.580;8.912;2023-12-22T07:53:29;6.80;99.90
32534;DHT22;18973;48.580;8.912;2023-12-22T07:55:55;6.80;99.90
32534;DHT22;18973;48.580;8.912;2023-12-22T07:58:21;6.90;99.90
32534;DHT22;18973;48.580;8.912;2023-12-22T08:00:46;6.90;99.90
32534;DHT22;18973;48.580;8.912;2023-12-22T08:03:12;7.00;99.90
32534;DHT22;18973;48.580;8.912;2023-12-22T08:05:38;7.00;99.90
32534;DHT22;18973;48.580;8.912;2023-12-22T08:08:04;7.10;99.90
32534;DHT22;18973;48.580;8.912;2023-12-22T08:10:30;7.10;99.90
32534;DHT22;18973;48.580;8.912;2023-12-22T08:12:55;7.10;99.90
32534;DHT22;18973;48.580;8.912;2023-12-22T08:15:22;7.20;99.90
32534;DHT22;18973;48.580;8.912;2023-12-22T08:17:48;7.20;99.90
32534;DHT22;18973;48.580;8.912;2023-12-22T08:20:18;7.20;99.90
32534;DHT22;18973;48.580;8.912;2023-12-22T08:22:46;7.30;99.90
32534;DHT22;18973;48.580;8.912;2023-12-22T08:25:12;7.30;99.90
32534;DHT22;18973;48.580;8.912;2023-12-22T08:27:37;7.30;99.90
32534;DHT22;18973;48.580;8.912;2023-12-22T08:30:03;7.20;99.90
32534;DHT22;18973;48.580;8.912;2023-12-22T08:32:29;7.20;99.90
32534;DHT22;18973;48.580;8.912;2023-12-22T08:34:55;7.20;99.90
32534;DHT22;18973;48.580;8.912;2023-12-22T08:37:21;7.30;99.90
32534;DHT22;18973;48.580;8.912;2023-12-22T08:39:46;7.20;99.90
32534;DHT22;18973;48.580;8.912;2023-12-22T08:42:12;7.30;99.90
32534;DHT22;18973;48.580;8.912;2023-12-22T08:44:38;7.20;99.90
32534;DHT22;18973;48.580;8.912;2023-12-22T08:47:03;7.30;99.90
32534;DHT22;18973;48.580;8.912;2023-12-22T08:49:29;7.30;99.90
32534;DHT22;18973;48.580;8.912;2023-12-22T08:51:55;7.30;99.90
32534;DHT22;18973;48.580;8.912;2023-12-22T08:54:20;7.30;99.90
32534;DHT22;18973;48.580;8.912;2023-12-22T08:56:46;7.30;99.90
32534;DHT22;18973;48.580;8.912;2023-12-22T08:59:12;7.40;99.90
32534;DHT22;18973;48.580;8.912;2023-12-22T09:01:37;7.40;99.90
32534;DHT22;18973;48.580;8.912;2023-12-22T09:04:03;7.40;99.90
32534;DHT22;18973;48.580;8.912;2023-12-22T09:06:29;7.40;99.90
32534;DHT22;18973;48.580;8.912;2023-12-22T09:08:55;7.40;99.90
32534;DHT22;18973;48.580;8.912;2023-12-22T09:11:21;7.50;99.90
32534;DHT22;18973;48.580;8.912;2023-12-22T09:13:47;7.50;99.90
32534;DHT22;18973;48.580;8.912;2023-12-22T09:16:13;7.40;99.90
32534;DHT22;18973;48.580;8.912;2023-12-22T09:18:40;7.50;99.90
32534;DHT22;18973;48.580;8.912;2023-12-22T09:21:07;7.40;99.90
32534;DHT22;18973;48.580;8.912;2023-12-22T09:23:33;7.40;99.90
32534;DHT22;18973;48.580;8.912;2023-12-22T09:25:59;7.30;99.90
32534;DHT22;18973;48.580;8.912;2023-12-22T09:28:25;7.30;99.90
32534;DHT22;18973;48.580;8.912;2023-12-22T09:30:51;7.30;99.90
32534;DHT22;18973;48.580;8.912;2023-12-22T09:33:16;7.20;99.90
32534;DHT22;18973;48.580;8.912;2023-12-22T09:35:42;7.20;99.90
32534;DHT22;18973;48.580;8.912;2023-12-22T09:38:11;7.10;99.90
32534;DHT22;18973;48.580;8.912;2023-12-22T09:40:40;7.10;99.90
32534;DHT22;18973;48.580;8.912;2023-12-22T09:43:09;7.10;99.90
32534;DHT22;18973;48.580;8.912;2023-12-22T09:45:35;7.20;99.90
32534;DHT22;18973;48.580;8.912;2023-12-22T09:48:02;7.20;99.90
32534;DHT22;18973;48.580;8.912;2023-12-22T09:50:30;7.20;99.90
32534;DHT22;18973;48.580;8.912;2023-12-22T09:52:55;7.20;99.90
32534;DHT22;18973;48.580;8.912;2023-12-22T09:55:22;7.20;99.90
32534;DHT22;18973;48.580;8.912;2023-12-22T09:57:49;7.30;99.90
32534;DHT22;18973;48.580;8.912;2023-12-22T10:00:15;7.30;99.90
32534;DHT22;18973;48.580;8.912;2023-12-22T10:02:43;7.30;99.90
32534;DHT22;18973;48.580;8.912;2023-12-22T10:05:11;7.30;99.90
32534;DHT22;18973;48.580;8.912;2023-12-22T10:07:39;7.40;99.90
32534;DHT22;18973;48.580;8.912;2023-12-22T10:10:07;7.50;99.90
32534;DHT22;18973;48.580;8.912;2023-12-22T10:12:34;7.40;99.90
32534;DHT22;18973;48.580;8.912;2023-12-22T10:15:01;7.40;99.90
32534;DHT22;18973;48.580;8.912;2023-12-22T10:17:29;7.50;99.90
32534;DHT22;18973;48.580;8.912;2023-12-22T10:19:55;7.50;99.90
32534;DHT22;18973;48.580;8.912;2023-12-22T10:22:21;7.50;99.90
32534;DHT22;18973;48.580;8.912;2023-12-22T10:24:49;7.50;99.90
32534;DHT22;18973;48.580;8.912;2023-12-22T10:27:18;7.50;99.90
32534;DHT22;18973;48.580;8.912;2023-12-22T10:29:56;7.50;99.90
32534;DHT22;18973;48.580;8.912;2023-12-22T10:32:22;7.50;99.90
32534;DHT22;18973;48.580;8.912;2023-12-22T10:34:50;7.50;99.90
32534;DHT22;18973;48.580;8.912;2023-12-22T10:37:16;7.50;99.90
32534;DHT22;18973;48.580;8.912;2023-12-22T10:39:42;7.40;99.90
32534;DHT22;18973;48.580;8.912;2023-12-22T10:42:09;7.40;99.90
32534;DHT22;18973;48.580;8.912;2023-12-22T10:44:35;7.40;99.90
32534;DHT22;18973;48.580;8.912;2023-12-22T10:47:05;7.30;99.90
32534;DHT22;18973;48.580;8.912;2023-12-22T10:49:31;7.30;99.90
32534;DHT22;18973;48.580;8.912;2023-12-22T10:51:57;7.30;99.90
32534;DHT22;18973;48.580;8.912;2023-12-22T10:54:23;7.40;99.90
32534;DHT22;18973;48.580;8.912;2023-12-22T10:56:49;7.40;99.90
32534;DHT22;18973;48.580;8.912;2023-12-22T10:59:23;7.30;99.90
32534;DHT22;18973;48.580;8.912;2023-12-22T11:01:51;7.30;99.90
32534;DHT22;18973;48.580;8.912;2023-12-22T11:04:20;7.20;99.90
32534;DHT22;18973;48.580;8.912;2023-12-22T11:06:47;7.20;99.90
32534;DHT22;18973;48.580;8.912;2023-12-22T11:09:16;7.30;99.90
32534;DHT22;18973;48.580;8.912;2023-12-22T11:11:43;7.30;99.90
32534;DHT22;18973;48.580;8.912;2023-12-22T11:14:11;7.20;99.90
32534;DHT22;18973;48.580;8.912;2023-12-22T11:16:38;7.20;99.90
32534;DHT22;18973;48.580;8.912;2023-12-22T11:19:06;7.20;99.90
32534;DHT22;18973;48.580;8.912;2023-12-22T11:21:35;7.20;99.90
32534;DHT22;18973;48.580;8.912;2023-12-22T11:24:02;7.20;99.90
32534;DHT22;18973;48.580;8.912;2023-12-22T11:26:29;7.10;99.90
32534;DHT22;18973;48.580;8.912;2023-12-22T11:28:56;7.20;99.90
32534;DHT22;18973;48.580;8.912;2023-12-22T11:31:26;7.20;99.90
32534;DHT22;18973;48.580;8.912;2023-12-22T11:33:54;7.20;99.90
32534;DHT22;18973;48.580;8.912;2023-12-22T11:36:23;7.10;99.90
32534;DHT22;18973;48.580;8.912;2023-12-22T11:38:49;7.20;99.90
32534;DHT22;18973;48.580;8.912;2023-12-22T11:41:21;7.20;99.90
32534;DHT22;18973;48.580;8.912;2023-12-22T11:43:48;7.10;99.90
32534;DHT22;18973;48.580;8.912;2023-12-22T11:46:18;7.10;99.90
32534;DHT22;18973;48.580;8.912;2023-12-22T11:48:51;7.10;99.90
32534;DHT22;18973;48.580;8.912;2023-12-22T11:51:17;7.10;99.90
32534;DHT22;18973;48.580;8.912;2023-12-22T11:53:44;7.20;99.90
32534;DHT22;18973;48.580;8.912;2023-12-22T11:56:11;7.20;99.90
32534;DHT22;18973;48.580;8.912;2023-12-22T11:58:46;7.10;99.90
32534;DHT22;18973;48.580;8.912;2023-12-22T12:01:20;7.10;99.90
32534;DHT22;18973;48.580;8.912;2023-12-22T12:03:55;7.10;99.90
32534;DHT22;18973;48.580;8.912;2023-12-22T12:08:55;7.10;99.90
32534;DHT22;18973;48.580;8.912;2023-12-22T12:11:22;7.10;99.90
32534;DHT22;18973;48.580;8.912;2023-12-22T12:13:49;7.10;99.90
32534;DHT22;18973;48.580;8.912;2023-12-22T12:16:19;7.10;99.90
32534;DHT22;18973;48.580;8.912;2023-12-22T12:18:47;7.10;99.90
32534;DHT22;18973;48.580;8.912;2023-12-22T12:21:13;7.20;99.90
32534;DHT22;18973;48.580;8.912;2023-12-22T12:23:41;7.20;99.90
32534;DHT22;18973;48.580;8.912;2023-12-22T12:26:07;7.20;99.90
32534;DHT22;18973;48.580;8.912;2023-12-22T12:28:35;7.20;99.90
32534;DHT22;18973;48.580;8.912;2023-12-22T12:31:06;7.20;99.90
32534;DHT22;18973;48.580;8.912;2023-12-22T12:33:32;7.20;99.90
32534;DHT22;18973;48.580;8.912;2023-12-22T12:36:02;7.30;99.90
32534;DHT22;18973;48.580;8.912;2023-12-22T12:38:41;7.30;99.90
32534;DHT22;18973;48.580;8.912;2023-12-22T12:41:09;7.20;99.90
32534;DHT22;18973;48.580;8.912;2023-12-22T12:43:37;7.30;99.90
32534;DHT22;18973;48.580;8.912;2023-12-22T12:46:06;7.30;99.90
32534;DHT22;18973;48.580;8.912;2023-12-22T12:48:32;7.30;99.90
32534;DHT22;18973;48.580;8.912;2023-12-22T12:51:02;7.30;99.90
32534;DHT22;18973;48.580;8.912;2023-12-22T12:53:33;7.30;99.90
32534;DHT22;18973;48.580;8.912;2023-12-22T12:56:00;7.30;99.90
32534;DHT22;18973;48.580;8.912;2023-12-22T12:58:32;7.40;99.90
32534;DHT22;18973;48.580;8.912;2023-12-22T13:01:09;7.40;99.90
32534;DHT22;18973;48.580;8.912;2023-12-22T13:03:53;7.40;99.90
32534;DHT22;18973;48.580;8.912;2023-12-22T13:06:19;7.40;99.90
32534;DHT22;18973;48.580;8.912;2023-12-22T13:08:52;7.40;99.90
32534;DHT22;18973;48.580;8.912;2023-12-22T13:11:22;7.50;99.90
32534;DHT22;18973;48.580;8.912;2023-12-22T13:13:48;7.50;99.90
32534;DHT22;18973;48.580;8.912;2023-12-22T13:16:24;7.50;99.90
32534;DHT22;18973;48.580;8.912;2023-12-22T13:18:57;7.50;99.90
32534;DHT22;18973;48.580;8.912;2023-12-22T13:21:27;7.50;99.90
32534;DHT22;18973;48.580;8.912;2023-12-22T13:24:13;7.50;99.90
32534;DHT22;18973;48.580;8.912;2023-12-22T13:26:40;7.60;99.90
32534;DHT22;18973;48.580;8.912;2023-12-22T13:29:06;7.60;99.90
32534;DHT22;18973;48.580;8.912;2023-12-22T13:31:33;7.60;99.90
32534;DHT22;18973;48.580;8.912;2023-12-22T13:34:00;7.60;99.90
32534;DHT22;18973;48.580;8.912;2023-12-22T13:36:26;7.70;99.90
32534;DHT22;18973;48.580;8.912;2023-12-22T13:38:52;7.70;99.90
32534;DHT22;18973;48.580;8.912;2023-12-22T13:41:18;7.70;99.90
32534;DHT22;18973;48.580;8.912;2023-12-22T13:43:44;7.70;99.90
32534;DHT22;18973;48.580;8.912;2023-12-22T13:46:12;7.70;99.90
32534;DHT22;18973;48.580;8.912;2023-12-22T13:48:38;7.70;99.90
32534;DHT22;18973;48.580;8.912;2023-12-22T13:51:04;7.80;99.90
32534;DHT22;18973;48.580;8.912;2023-12-22T13:53:30;7.80;99.90
32534;DHT22;18973;48.580;8.912;2023-12-22T13:55:59;7.90;99.90
32534;DHT22;18973;48.580;8.912;2023-12-22T13:58:26;7.90;99.90
32534;DHT22;18973;48.580;8.912;2023-12-22T14:00:52;7.90;99.90
32534;DHT22;18973;48.580;8.912;2023-12-22T14:03:19;7.90;99.90
32534;DHT22;18973;48.580;8.912;2023-12-22T14:05:48;8.00;99.90
32534;DHT22;18973;48.580;8.912;2023-12-22T14:08:15;8.00;99.90
32534;DHT22;18973;48.580;8.912;2023-12-22T14:10:48;8.00;99.90
32534;DHT22;18973;48.580;8.912;2023-12-22T14:13:14;8.00;99.90
32534;DHT22;18973;48.580;8.912;2023-12-22T14:15:44;8.00;99.90
32534;DHT22;18973;48.580;8.912;2023-12-22T14:18:11;8.10;99.90
32534;DHT22;18973;48.580;8.912;2023-12-22T14:20:37;8.10;99.90
32534;DHT22;18973;48.580;8.912;2023-12-22T14:23:03;8.10;99.90
32534;DHT22;18973;48.580;8.912;2023-12-22T14:25:29;8.10;99.90
32534;DHT22;18973;48.580;8.912;2023-12-22T14:27:55;8.10;99.90
32534;DHT22;18973;48.580;8.912;2023-12-22T14:30:25;8.10;99.90
32534;DHT22;18973;48.580;8.912;2023-12-22T14:32:51;8.10;99.90
32534;DHT22;18973;48.580;8.912;2023-12-22T14:35:17;8.10;99.90
32534;DHT22;18973;48.580;8.912;2023-12-22T14:37:43;8.10;99.90
32534;DHT22;18973;48.580;8.912;2023-12-22T14:40:11;8.10;99.90
32534;DHT22;18973;48.580;8.912;2023-12-22T14:42:37;8.20;99.90
32534;DHT22;18973;48.580;8.912;2023-12-22T14:45:03;8.20;99.90
32534;DHT22;18973;48.580;8.912;2023-12-22T14:47:30;8.20;99.90
32534;DHT22;18973;48.580;8.912;2023-12-22T14:49:56;8.20;99.90
32534;DHT22;18973;48.580;8.912;2023-12-22T14:52:25;8.30;99.90
32534;DHT22;18973;48.580;8.912;2023-12-22T14:54:51;8.30;99.90
32534;DHT22;18973;48.580;8.912;2023-12-22T14:57:17;8.30;99.90
32534;DHT22;18973;48.580;8.912;2023-12-22T14:59:47;8.30;99.90
32534;DHT22;18973;48.580;8.912;2023-12-22T15:02:12;8.30;99.90
32534;DHT22;18973;48.580;8.912;2023-12-22T15:04:38;8.30;99.90
32534;DHT22;18973;48.580;8.912;2023-12-22T15:07:04;8.30;99.90
32534;DHT22;18973;48.580;8.912;2023-12-22T15:09:30;8.30;99.90
32534;DHT22;18973;48.580;8.912;2023-12-22T15:11:55;8.30;99.90
32534;DHT22;18973;48.580;8.912;2023-12-22T15:14:21;8.30;99.90
32534;DHT22;18973;48.580;8.912;2023-12-22T15:16:47;8.30;99.90
32534;DHT22;18973;48.580;8.912;2023-12-22T15:19:16;8.30;99.90
32534;DHT22;18973;48.580;8.912;2023-12-22T15:21:43;8.40;99.90
32534;DHT22;18973;48.580;8.912;2023-12-22T15:24:09;8.40;99.90
32534;DHT22;18973;48.580;8.912;2023-12-22T15:26:35;8.40;99.90
32534;DHT22;18973;48.580;8.912;2023-12-22T15:29:02;8.30;99.90
32534;DHT22;18973;48.580;8.912;2023-12-22T15:31:29;8.30;99.90
32534;DHT22;18973;48.580;8.912;2023-12-22T15:33:58;8.30;99.90
32534;DHT22;18973;48.580;8.912;2023-12-22T15:36:24;8.30;99.90
32534;DHT22;18973;48.580;8.912;2023-12-22T15:38:50;8.40;99.90
32534;DHT22;18973;48.580;8.912;2023-12-22T15:41:16;8.40;99.90
32534;DHT22;18973;48.580;8.912;2023-12-22T15:43:42;8.40;99.90
32534;DHT22;18973;48.580;8.912;2023-12-22T15:46:08;8.30;99.90
32534;DHT22;18973;48.580;8.912;2023-12-22T15:48:35;8.40;99.90
32534;DHT22;18973;48.580;8.912;2023-12-22T15:51:09;8.30;99.90